Time;durP1;ratioP1;P1;durP2;ratioP2;P2;SDS_P1;SDS_P2;PMS_P1;PMS_P2;Temp;Humidity;BMP_temperature;BMP_pressure;BME280_temperature;BME280_humidity;BME280_pressure;Samples;Min_cycle;Max_cycle;Signal;HPM_P1;HPM_P2
2023/02/16 00:01:55;;;;;;;67.22;39.38;;;8.20;99.90;;;;;;5032979;28;20033;-87
2023/02/16 00:04:26;;;;;;;68.60;39.00;;;7.50;99.90;;;;;;5030026;28;20120;-86
2023/02/16 00:06:52;;;;;;;67.53;41.40;;;7.50;99.90;;;;;;5015973;28;20077;-86
2023/02/16 00:09:19;;;;;;;73.50;41.40;;;7.50;99.90;;;;;;5012934;28;20034;-86
2023/02/16 00:14:32;;;;;;;73.43;43.00;;;7.50;99.90;;;;;;5014751;28;20150;-86
2023/02/16 00:16:58;;;;;;;67.68;41.13;;;7.50;99.90;;;;;;5032475;28;20025;-86
2023/02/16 00:19:29;;;;;;;68.32;42.58;;;7.50;99.90;;;;;;5033396;28;20025;-87
2023/02/16 00:21:59;;;;;;;67.43;41.15;;;7.50;99.90;;;;;;5033041;28;20022;-85
2023/02/16 00:24:27;;;;;;;68.53;41.20;;;7.50;99.90;;;;;;5032821;28;20059;-86
2023/02/16 00:26:53;;;;;;;73.05;41.78;;;7.50;99.90;;;;;;5032948;28;20487;-86
2023/02/16 00:29:29;;;;;;;66.47;39.30;;;7.40;99.90;;;;;;5033245;28;20072;-86
2023/02/16 00:31:56;;;;;;;71.68;41.25;;;7.40;99.90;;;;;;5032103;28;20053;-86
2023/02/16 00:34:32;;;;;;;67.70;40.28;;;7.40;99.90;;;;;;5032480;28;20120;-86
2023/02/16 00:37:00;;;;;;;71.30;42.67;;;7.40;99.90;;;;;;5033107;28;20025;-87
2023/02/16 00:39:26;;;;;;;72.93;42.35;;;7.40;99.90;;;;;;5032308;28;20448;-86
2023/02/16 00:41:55;;;;;;;68.88;39.92;;;7.40;99.90;;;;;;5032551;28;20473;-86
2023/02/16 00:44:33;;;;;;;66.18;41.38;;;7.30;99.90;;;;;;5032264;28;20014;-86
2023/02/16 00:47:21;;;;;;;70.13;39.35;;;7.30;99.90;;;;;;5032785;28;20037;-86
2023/02/16 00:49:51;;;;;;;67.50;40.05;;;7.30;99.90;;;;;;5032597;28;20029;-86
2023/02/16 00:52:17;;;;;;;;;;;7.20;99.90;;;;;;5032596;28;20021;-85
2023/02/16 00:54:42;;;;;;;67.85;39.88;;;7.20;99.90;;;;;;5032197;28;19924;-86
2023/02/16 00:57:15;;;;;;;69.32;41.42;;;7.30;99.90;;;;;;5032657;28;20022;-86
2023/02/16 00:59:41;;;;;;;67.45;40.97;;;7.20;99.90;;;;;;5031619;28;20494;-86
2023/02/16 01:02:06;;;;;;;65.60;40.40;;;7.30;99.90;;;;;;5032615;28;20132;-86
2023/02/16 01:04:32;;;;;;;69.60;40.08;;;7.20;99.90;;;;;;5032737;28;20021;-86
2023/02/16 01:12:42;;;;;;;68.47;42.08;;;7.20;99.90;;;;;;4951260;29;20054;-86
2023/02/16 01:15:14;;;;;;;70.80;41.75;;;7.10;99.90;;;;;;5011551;28;20485;-86
2023/02/16 01:17:40;;;;;;;70.38;42.05;;;7.60;99.90;;;;;;5032186;28;20056;-85
2023/02/16 01:20:25;;;;;;;65.88;40.85;;;7.20;99.90;;;;;;5024673;28;20204;-86
2023/02/16 01:22:50;;;;;;;65.65;40.80;;;7.40;99.90;;;;;;5012322;28;20022;-86
2023/02/16 01:25:16;;;;;;;63.05;40.03;;;7.10;99.90;;;;;;5012765;28;20029;-86
2023/02/16 01:27:43;;;;;;;68.57;42.10;;;7.20;99.90;;;;;;5011541;28;20022;-86
2023/02/16 01:30:15;;;;;;;66.35;41.00;;;7.20;99.90;;;;;;5012592;28;20049;-86
2023/02/16 01:32:41;;;;;;;76.40;41.25;;;7.20;99.90;;;;;;5012187;28;20026;-86
2023/02/16 01:35:08;;;;;;;73.60;40.78;;;7.30;99.90;;;;;;5011568;28;20367;-86
2023/02/16 01:37:34;;;;;;;65.43;39.58;;;7.20;99.90;;;;;;5012360;28;20030;-86
2023/02/16 01:40:00;;;;;;;77.00;40.45;;;7.20;99.90;;;;;;5012582;28;20033;-86
2023/02/16 01:42:37;;;;;;;71.90;41.72;;;7.20;99.90;;;;;;5012098;28;20096;-84
2023/02/16 01:45:12;;;;;;;66.63;40.20;;;7.20;99.90;;;;;;5012268;28;20037;-85
2023/02/16 01:47:43;;;;;;;65.53;39.95;;;7.20;99.90;;;;;;5014546;28;20496;-84
2023/02/16 01:50:23;;;;;;;67.55;39.85;;;7.20;99.90;;;;;;5016313;28;20034;-86
2023/02/16 01:53:16;;;;;;;67.93;40.45;;;7.30;99.90;;;;;;5016221;28;20026;-86
2023/02/16 01:55:45;;;;;;;70.40;41.30;;;7.20;99.90;;;;;;4979036;28;20054;-86
2023/02/16 01:58:28;;;;;;;65.95;38.63;;;8.00;99.90;;;;;;5016423;28;20026;-86
2023/02/16 02:00:53;;;;;;;67.40;40.05;;;7.20;99.90;;;;;;5015926;28;20481;-86
2023/02/16 02:06:10;;;;;;;66.88;39.83;;;7.30;99.90;;;;;;5016344;28;20117;-87
2023/02/16 02:08:44;;;;;;;66.55;39.63;;;7.60;99.90;;;;;;5015247;28;20048;-87
2023/02/16 02:11:37;;;;;;;65.85;41.17;;;8.20;99.90;;;;;;5015932;28;20497;-86
2023/02/16 02:14:18;;;;;;;67.72;40.33;;;7.30;99.90;;;;;;5015878;28;20552;-87
2023/02/16 02:16:58;;;;;;;66.18;39.20;;;7.30;99.90;;;;;;5014988;28;20026;-86
2023/02/16 02:19:23;;;;;;;64.05;39.33;;;7.30;99.90;;;;;;5015903;28;20026;-86
2023/02/16 02:25:17;;;;;;;62.58;38.28;;;7.30;99.90;;;;;;5015001;28;20551;-85
2023/02/16 02:27:56;;;;;;;66.72;40.33;;;7.30;99.90;;;;;;5015625;28;20037;-87
2023/02/16 02:30:48;;;;;;;76.20;41.55;;;7.30;99.90;;;;;;5015147;28;20034;-86
2023/02/16 02:33:34;;;;;;;65.70;40.08;;;7.30;99.90;;;;;;5015586;28;20029;-85
2023/02/16 02:36:34;;;;;;;70.38;41.38;;;7.30;99.90;;;;;;5015568;28;20030;-86
2023/02/16 02:39:31;;;;;;;66.78;40.00;;;7.30;99.90;;;;;;4964455;28;20034;-86
2023/02/16 02:42:22;;;;;;;64.65;38.95;;;7.20;99.90;;;;;;5015184;28;20030;-86
2023/02/16 02:44:52;;;;;;;67.80;39.42;;;7.70;99.90;;;;;;5013431;28;20092;-86
2023/02/16 02:47:17;;;;;;;67.20;40.40;;;7.20;99.90;;;;;;5015238;28;20026;-86
2023/02/16 02:49:50;;;;;;;67.75;40.90;;;8.10;99.90;;;;;;5011123;28;20470;-86
2023/02/16 02:52:19;;;;;;;65.60;39.60;;;7.30;99.90;;;;;;5006002;28;20030;-86
2023/02/16 03:00:46;;;;;;;66.30;40.05;;;7.30;99.90;;;;;;5009399;28;20398;-85
2023/02/16 03:03:21;;;;;;;67.22;39.03;;;8.10;99.90;;;;;;5015171;28;20028;-86
2023/02/16 03:06:04;;;;;;;80.30;40.95;;;7.30;99.90;;;;;;5014275;28;20032;-87
2023/02/16 03:08:32;;;;;;;67.50;39.45;;;7.30;99.90;;;;;;5014829;28;20109;-86
2023/02/16 03:14:06;;;;;;;65.45;38.38;;;7.20;99.90;;;;;;5013787;28;20457;-86
2023/02/16 03:16:38;;;;;;;67.13;40.75;;;7.30;99.90;;;;;;5014996;28;20057;-86
2023/02/16 03:30:11;;;;;;;62.05;39.08;;;7.30;99.90;;;;;;5034424;28;20044;-86
2023/02/16 03:32:38;;;;;;;64.25;39.50;;;7.30;99.90;;;;;;5034080;28;20033;-86
2023/02/16 03:35:05;;;;;;;69.85;39.58;;;7.30;99.90;;;;;;5033539;28;20412;-85
2023/02/16 03:37:31;;;;;;;64.70;40.85;;;7.30;99.90;;;;;;5033917;28;20025;-86
2023/02/16 03:42:49;;;;;;;70.25;41.35;;;7.30;99.90;;;;;;5033751;28;20093;-87
2023/02/16 03:45:15;;;;;;;66.50;40.67;;;7.30;99.90;;;;;;5034174;28;20029;-85
2023/02/16 03:47:41;;;;;;;64.88;39.83;;;7.30;99.90;;;;;;5032974;28;20377;-86
2023/02/16 03:50:07;;;;;;;69.97;40.60;;;7.30;99.90;;;;;;5033947;28;20022;-86
2023/02/16 03:52:32;;;;;;;63.28;39.53;;;7.40;99.90;;;;;;5033441;28;20600;-86
2023/02/16 03:54:59;;;;;;;68.07;41.55;;;7.30;99.90;;;;;;5032925;28;20075;-86
2023/02/16 03:57:25;;;;;;;63.20;39.85;;;7.30;99.90;;;;;;5033966;28;20038;-86
2023/02/16 03:59:52;;;;;;;69.03;42.47;;;7.40;99.90;;;;;;5033515;28;20420;-86
2023/02/16 04:02:17;;;;;;;69.05;42.97;;;7.30;99.90;;;;;;5033011;28;20026;-86
2023/02/16 04:04:43;;;;;;;76.10;41.33;;;7.60;99.90;;;;;;5033068;28;20039;-84
2023/02/16 04:07:09;;;;;;;63.08;40.17;;;7.80;99.90;;;;;;5033478;28;20021;-86
2023/02/16 04:09:34;;;;;;;62.40;40.28;;;8.40;99.90;;;;;;5032515;28;20060;-87
2023/02/16 04:14:44;;;;;;;72.95;42.55;;;7.40;99.90;;;;;;5033097;28;20044;-86
2023/02/16 04:17:09;;;;;;;67.93;40.95;;;7.40;99.90;;;;;;5032705;28;20022;-83
2023/02/16 04:19:35;;;;;;;71.32;40.97;;;7.40;99.90;;;;;;5033007;28;20485;-86
2023/02/16 04:22:00;;;;;;;75.65;41.38;;;7.40;99.90;;;;;;5033513;28;20462;-86
2023/02/16 04:24:26;;;;;;;70.03;42.20;;;7.40;99.90;;;;;;5032658;28;20029;-85
2023/02/16 04:26:51;;;;;;;68.60;41.50;;;7.40;99.90;;;;;;5033031;28;20087;-86
2023/02/16 04:29:17;;;;;;;71.85;41.65;;;7.60;99.90;;;;;;5032531;28;20026;-86
2023/02/16 04:31:43;;;;;;;68.60;40.85;;;7.40;99.90;;;;;;5032938;28;20017;-86
2023/02/16 04:34:08;;;;;;;63.72;39.67;;;8.00;99.90;;;;;;5033000;28;20370;-85
2023/02/16 04:36:34;;;;;;;65.40;40.75;;;7.40;99.90;;;;;;5032029;28;20064;-86
2023/02/16 04:38:59;;;;;;;68.25;41.40;;;7.40;99.90;;;;;;5033179;28;20033;-86
2023/02/16 04:41:25;;;;;;;70.20;41.60;;;7.40;99.90;;;;;;5032946;28;20025;-87
2023/02/16 04:43:51;;;;;;;67.25;41.08;;;7.50;99.90;;;;;;5031975;28;20082;-87
2023/02/16 04:46:18;;;;;;;69.57;42.60;;;7.50;99.90;;;;;;5032737;28;20462;-86
2023/02/16 04:48:44;;;;;;;68.38;39.42;;;7.50;99.90;;;;;;5032475;28;20033;-86
2023/02/16 04:51:09;;;;;;;63.60;40.28;;;7.50;99.90;;;;;;5032096;28;20041;-86
2023/02/16 04:53:35;;;;;;;69.57;42.75;;;8.10;99.90;;;;;;5032443;28;20075;-85
2023/02/16 04:56:01;;;;;;;66.18;40.53;;;7.50;99.90;;;;;;5034552;28;20382;-86
2023/02/16 04:58:27;;;;;;;71.95;42.15;;;7.50;99.90;;;;;;5032101;28;20029;-87
2023/02/16 05:00:52;;;;;;;64.03;41.13;;;7.50;99.90;;;;;;5032297;28;20034;-86
2023/02/16 05:03:18;;;;;;;68.65;42.10;;;7.50;99.90;;;;;;5032480;28;20017;-86
2023/02/16 05:05:43;;;;;;;70.25;42.70;;;8.30;99.90;;;;;;5030153;28;20104;-85
2023/02/16 05:08:09;;;;;;;73.50;43.22;;;7.40;99.90;;;;;;5012874;28;20044;-86
2023/02/16 05:10:34;;;;;;;69.85;42.83;;;7.40;99.90;;;;;;5012567;28;20056;-86
2023/02/16 05:15:44;;;;;;;71.63;42.17;;;7.40;99.90;;;;;;5012679;28;20045;-86
2023/02/16 05:18:10;;;;;;;67.28;42.17;;;7.40;99.90;;;;;;5012895;28;20021;-86
2023/02/16 05:23:19;;;;;;;67.00;42.70;;;7.40;99.90;;;;;;5012701;28;20076;-86
2023/02/16 05:25:45;;;;;;;73.03;43.50;;;8.30;99.90;;;;;;5011702;28;20278;-85
2023/02/16 05:28:10;;;;;;;65.28;40.92;;;8.20;99.90;;;;;;5012617;28;20030;-86
2023/02/16 05:30:36;;;;;;;66.53;43.15;;;7.70;99.90;;;;;;5012298;28;20022;-86
2023/02/16 05:33:05;;;;;;;65.70;39.80;;;7.40;99.90;;;;;;5012188;28;20037;-86
2023/02/16 05:35:32;;;;;;;70.30;42.22;;;7.40;99.90;;;;;;5012211;28;20474;-85
2023/02/16 05:37:57;;;;;;;69.28;42.35;;;7.30;99.90;;;;;;5012267;28;20504;-86
2023/02/16 05:40:23;;;;;;;72.18;43.63;;;7.40;99.90;;;;;;5011544;28;20108;-86
2023/02/16 05:42:52;;;;;;;72.13;43.70;;;7.40;99.90;;;;;;5011980;28;20065;-85
2023/02/16 05:45:18;;;;;;;69.05;41.97;;;7.90;99.90;;;;;;5012468;28;20057;-86
2023/02/16 05:47:43;;;;;;;70.68;44.38;;;7.40;99.90;;;;;;5011653;28;20057;-86
2023/02/16 05:50:09;;;;;;;76.07;45.45;;;7.40;99.90;;;;;;5012277;28;20028;-85
2023/02/16 05:52:35;;;;;;;71.90;44.55;;;7.40;99.90;;;;;;5011972;28;20026;-86
2023/02/16 05:55:00;;;;;;;70.10;43.13;;;7.60;99.90;;;;;;5015146;28;20057;-86
2023/02/16 05:57:26;;;;;;;77.20;43.58;;;8.00;99.90;;;;;;5031868;28;20033;-86
2023/02/16 05:59:51;;;;;;;77.32;44.03;;;8.10;99.90;;;;;;5031651;28;20029;-86
2023/02/16 06:02:17;;;;;;;65.93;43.20;;;7.40;99.90;;;;;;5031310;28;20469;-85
2023/02/16 06:04:43;;;;;;;78.70;43.28;;;7.40;99.90;;;;;;5031606;28;20033;-86
2023/02/16 06:07:08;;;;;;;81.40;45.08;;;7.40;99.90;;;;;;5031678;28;20026;-86
2023/02/16 06:09:34;;;;;;;72.68;43.08;;;7.40;99.90;;;;;;5030898;28;20037;-85
2023/02/16 06:11:59;;;;;;;72.38;43.13;;;7.40;99.90;;;;;;5031673;28;20025;-86
2023/02/16 06:14:25;;;;;;;74.90;44.85;;;7.50;99.90;;;;;;5031925;28;20045;-86
2023/02/16 06:16:50;;;;;;;69.22;41.92;;;7.50;99.90;;;;;;5030949;28;20390;-86
2023/02/16 06:19:17;;;;;;;77.50;44.47;;;8.50;99.90;;;;;;5031516;28;20064;-85
2023/02/16 06:21:43;;;;;;;67.40;43.30;;;7.50;99.90;;;;;;5031173;28;20025;-85
2023/02/16 06:24:11;;;;;;;78.55;44.92;;;7.50;99.90;;;;;;5032280;28;20346;-86
2023/02/16 06:26:37;;;;;;;84.97;44.63;;;7.60;99.90;;;;;;5034723;28;20025;-85
2023/02/16 06:29:03;;;;;;;80.82;44.70;;;7.50;99.90;;;;;;5043342;28;20021;-86
2023/02/16 06:31:28;;;;;;;79.50;45.60;;;7.50;99.90;;;;;;5044978;28;20113;-85
2023/02/16 06:33:55;;;;;;;68.72;44.00;;;7.50;99.90;;;;;;5036964;28;20473;-85
2023/02/16 06:36:21;;;;;;;74.65;46.03;;;7.60;99.90;;;;;;5034010;28;20013;-85
2023/02/16 06:38:47;;;;;;;67.55;43.15;;;7.50;99.90;;;;;;5036767;28;20025;-87
2023/02/16 06:41:30;;;;;;;72.32;42.85;;;7.50;99.90;;;;;;5045021;28;20055;-87
2023/02/16 06:43:58;;;;;;;80.07;46.13;;;8.10;99.90;;;;;;5046624;28;20482;-86
2023/02/16 06:46:23;;;;;;;75.38;45.45;;;8.20;99.90;;;;;;5035661;28;20022;-86
2023/02/16 06:48:52;;;;;;;74.13;45.53;;;7.50;99.90;;;;;;5034732;28;20470;-86
2023/02/16 06:51:18;;;;;;;76.65;45.28;;;7.00;99.90;;;;;;5051982;28;20023;-87
2023/02/16 06:53:43;;;;;;;73.28;45.47;;;7.40;99.90;;;;;;5054402;28;20021;-86
2023/02/16 06:56:09;;;;;;;73.47;45.22;;;7.40;99.90;;;;;;5054200;28;20059;-85
2023/02/16 06:58:34;;;;;;;72.30;45.17;;;7.50;99.90;;;;;;5053968;28;20063;-85
2023/02/16 07:01:00;;;;;;;74.13;44.40;;;7.50;99.90;;;;;;5054678;28;20032;-85
2023/02/16 07:03:25;;;;;;;78.03;45.20;;;7.50;99.90;;;;;;5055191;28;20480;-86
2023/02/16 07:05:51;;;;;;;77.05;47.20;;;7.50;99.90;;;;;;5053958;28;20389;-86
2023/02/16 07:08:17;;;;;;;76.68;46.15;;;7.50;99.90;;;;;;5054545;28;20497;-85
2023/02/16 07:10:44;;;;;;;75.72;45.50;;;7.50;99.90;;;;;;5056798;28;20021;-86
2023/02/16 07:13:10;;;;;;;70.90;43.75;;;7.50;99.90;;;;;;5053491;28;20036;-86
2023/02/16 07:15:36;;;;;;;73.70;44.72;;;7.60;99.90;;;;;;5053778;28;20491;-87
2023/02/16 07:18:02;;;;;;;75.50;44.80;;;7.60;99.90;;;;;;5054311;28;20025;-86
2023/02/16 07:20:27;;;;;;;79.18;45.85;;;7.60;99.90;;;;;;5054245;28;20460;-85
2023/02/16 07:22:53;;;;;;;72.53;44.50;;;7.60;99.90;;;;;;5053756;28;20208;-85
2023/02/16 07:25:19;;;;;;;77.10;44.08;;;7.90;99.90;;;;;;5053674;28;20057;-85
2023/02/16 07:27:44;;;;;;;72.18;45.58;;;7.60;99.90;;;;;;5052370;28;20063;-86
2023/02/16 07:30:11;;;;;;;75.35;45.00;;;8.50;99.90;;;;;;5052385;28;20029;-85
2023/02/16 07:32:37;;;;;;;74.72;44.80;;;7.60;99.90;;;;;;5051465;28;20351;-85
2023/02/16 07:35:03;;;;;;;76.53;45.90;;;7.60;99.90;;;;;;5052154;28;20029;-86
2023/02/16 07:37:29;;;;;;;76.03;44.28;;;7.60;99.90;;;;;;5052192;28;20032;-85
2023/02/16 07:39:55;;;;;;;78.15;47.03;;;7.60;99.90;;;;;;5051736;28;20029;-85
2023/02/16 07:42:21;;;;;;;73.82;45.42;;;8.10;99.90;;;;;;5053368;28;20021;-85
2023/02/16 07:44:46;;;;;;;78.10;46.13;;;7.70;99.90;;;;;;5053478;28;20530;-85
2023/02/16 07:47:13;;;;;;;74.40;45.42;;;7.60;99.90;;;;;;5053213;28;20114;-86
2023/02/16 07:49:39;;;;;;;75.55;46.65;;;7.70;99.90;;;;;;5053594;28;20136;-86
2023/02/16 07:52:04;;;;;;;74.88;45.40;;;7.60;99.90;;;;;;5053718;28;20469;-86
2023/02/16 07:54:31;;;;;;;75.43;44.53;;;7.70;99.90;;;;;;5052881;28;20085;-86
2023/02/16 07:56:57;;;;;;;73.25;44.25;;;7.70;99.90;;;;;;5052948;28;20559;-85
2023/02/16 07:59:22;;;;;;;78.85;46.25;;;7.70;99.90;;;;;;5051888;28;20167;-86
2023/02/16 08:01:48;;;;;;;71.22;45.08;;;7.70;99.90;;;;;;5052891;28;20044;-86
2023/02/16 08:04:13;;;;;;;75.18;45.50;;;7.70;99.90;;;;;;5053503;28;20103;-86
2023/02/16 08:06:48;;;;;;;70.60;45.00;;;8.40;99.90;;;;;;5053002;28;20025;-85
2023/02/16 08:09:14;;;;;;;74.93;45.42;;;8.50;99.90;;;;;;5052899;28;20090;-86
2023/02/16 08:11:49;;;;;;;75.28;46.22;;;7.80;99.90;;;;;;5053310;28;20432;-86
2023/02/16 08:14:18;;;;;;;82.88;45.90;;;7.70;99.90;;;;;;5052841;28;20389;-86
2023/02/16 08:16:49;;;;;;;80.82;47.58;;;8.30;99.90;;;;;;5052980;28;20100;-85
2023/02/16 08:19:15;;;;;;;75.68;46.83;;;7.90;99.90;;;;;;5053265;28;20029;-86
2023/02/16 08:21:40;;;;;;;74.65;44.83;;;7.70;99.90;;;;;;5052483;28;20470;-86
2023/02/16 08:24:07;;;;;;;80.78;47.20;;;7.80;99.90;;;;;;5048255;28;20040;-85
2023/02/16 08:26:39;;;;;;;69.13;45.67;;;7.70;99.90;;;;;;5032404;28;20048;-85
2023/02/16 08:29:06;;;;;;;76.72;47.22;;;7.70;99.90;;;;;;5031644;28;20020;-86
2023/02/16 08:31:34;;;;;;;73.32;45.25;;;7.70;99.90;;;;;;5032220;28;20113;-85
2023/02/16 08:34:01;;;;;;;81.35;46.72;;;7.80;99.90;;;;;;5032188;28;20049;-85
2023/02/16 08:36:33;;;;;;;73.40;45.63;;;7.80;99.90;;;;;;5028064;28;20033;-85
2023/02/16 08:39:18;;;;;;;72.32;46.83;;;7.80;99.90;;;;;;5033078;28;20021;-86
2023/02/16 08:41:46;;;;;;;80.93;47.83;;;7.80;99.90;;;;;;5032149;28;20035;-85
2023/02/16 08:44:12;;;;;;;76.40;46.25;;;8.20;99.90;;;;;;5032132;28;20029;-85
2023/02/16 08:46:40;;;;;;;74.65;46.35;;;7.80;99.90;;;;;;5033766;28;20477;-85
2023/02/16 08:49:07;;;;;;;71.63;44.80;;;7.80;99.90;;;;;;5041866;28;20061;-85
2023/02/16 08:51:35;;;;;;;71.20;46.25;;;7.80;99.90;;;;;;5030935;28;20366;-86
2023/02/16 08:54:02;;;;;;;78.35;47.40;;;7.80;99.90;;;;;;5031775;28;20030;-85
2023/02/16 08:56:29;;;;;;;76.00;46.47;;;7.80;99.90;;;;;;5018834;28;20128;-84
2023/02/16 08:58:55;;;;;;;81.15;49.90;;;8.70;99.90;;;;;;5021171;28;20518;-86
2023/02/16 09:01:22;;;;;;;72.53;46.90;;;7.80;99.90;;;;;;5015061;28;20053;-84
2023/02/16 09:03:48;;;;;;;77.13;48.58;;;7.80;99.90;;;;;;5017663;28;20029;-83
2023/02/16 09:06:16;;;;;;;74.85;46.85;;;8.40;99.90;;;;;;5019672;28;20029;-86
2023/02/16 09:08:43;;;;;;;72.20;46.25;;;7.80;99.90;;;;;;5012447;28;20053;-86
2023/02/16 09:11:12;;;;;;;82.10;49.80;;;7.80;99.90;;;;;;5011993;28;20034;-84
2023/02/16 09:13:39;;;;;;;78.70;47.97;;;7.80;99.90;;;;;;5012493;28;20064;-84
2023/02/16 09:16:18;;;;;;;82.10;46.13;;;7.80;99.90;;;;;;5012865;28;20136;-84
2023/02/16 09:18:44;;;;;;;77.35;47.50;;;7.80;99.90;;;;;;5012481;28;20120;-88
2023/02/16 09:21:14;;;;;;;75.68;47.28;;;7.80;99.90;;;;;;5016714;28;20051;-86
2023/02/16 09:23:41;;;;;;;79.68;48.40;;;7.80;99.90;;;;;;5032020;28;20107;-84
2023/02/16 09:26:08;;;;;;;82.32;50.90;;;7.80;99.90;;;;;;5031650;28;20049;-85
2023/02/16 09:28:38;;;;;;;88.15;49.85;;;7.90;99.90;;;;;;5034441;28;20500;-84
2023/02/16 09:31:27;;;;;;;74.72;46.58;;;8.90;99.90;;;;;;5032433;28;20075;-84
2023/02/16 09:34:03;;;;;;;79.95;47.88;;;7.90;99.90;;;;;;5032765;28;20469;-87
2023/02/16 09:36:34;;;;;;;76.55;48.80;;;8.10;99.90;;;;;;5033084;28;20041;-83
2023/02/16 09:38:59;;;;;;;86.43;50.55;;;7.90;99.90;;;;;;5031911;28;20108;-84
2023/02/16 09:41:54;;;;;;;79.97;50.47;;;7.90;99.90;;;;;;5025690;28;20113;-87
2023/02/16 09:44:36;;;;;;;80.95;49.55;;;7.90;99.90;;;;;;5012580;28;20029;-84
2023/02/16 09:47:08;;;;;;;79.80;48.90;;;8.00;99.90;;;;;;5011334;28;20426;-83
2023/02/16 09:49:41;;;;;;;83.78;50.65;;;8.00;99.90;;;;;;5015267;28;20033;-84
2023/02/16 09:52:15;;;;;;;80.95;50.78;;;8.00;99.90;;;;;;5016221;28;20067;-86
2023/02/16 09:54:53;;;;;;;84.07;49.13;;;8.00;99.90;;;;;;5014307;28;20363;-86
2023/02/16 09:57:54;;;;;;;89.40;50.60;;;8.00;99.90;;;;;;5023322;28;20052;-88
2023/02/16 10:00:32;;;;;;;78.75;49.53;;;8.10;99.90;;;;;;5026873;28;20132;-85
2023/02/16 10:03:20;;;;;;;84.57;51.05;;;8.70;99.90;;;;;;5023667;28;20025;-85
2023/02/16 10:06:16;;;;;;;86.80;51.92;;;8.10;99.90;;;;;;5019945;28;20492;-86
2023/02/16 10:08:56;;;;;;;83.63;50.78;;;8.20;99.90;;;;;;5030093;28;20017;-86
2023/02/16 10:11:41;;;;;;;81.93;49.55;;;8.20;99.90;;;;;;5011810;28;20032;-87
2023/02/16 10:14:29;;;;;;;82.97;50.10;;;8.30;99.90;;;;;;5017944;28;20146;-86
2023/02/16 10:17:32;;;;;;;84.57;49.50;;;8.30;99.90;;;;;;5027984;28;20037;-86
2023/02/16 10:20:15;;;;;;;88.65;51.30;;;8.40;99.90;;;;;;5035529;28;20029;-84
2023/02/16 10:22:50;;;;;;;85.88;50.55;;;8.40;99.90;;;;;;5034822;28;20029;-86
2023/02/16 10:25:28;;;;;;;83.07;51.83;;;8.50;99.90;;;;;;5035780;28;20095;-86
2023/02/16 10:28:18;;;;;;;83.57;52.22;;;8.50;99.90;;;;;;5034598;28;20029;-86
2023/02/16 10:31:11;;;;;;;79.33;52.03;;;9.40;99.90;;;;;;5035510;28;20033;-86
2023/02/16 10:34:05;;;;;;;80.95;51.42;;;8.50;99.90;;;;;;5016675;28;20068;-84
2023/02/16 10:36:41;;;;;;;83.30;51.35;;;8.60;99.90;;;;;;5034602;28;20033;-85
2023/02/16 10:39:21;;;;;;;86.35;51.17;;;8.60;99.90;;;;;;5035356;28;20061;-83
2023/02/16 10:41:56;;;;;;;79.70;48.53;;;8.70;99.90;;;;;;5034838;28;20568;-87
2023/02/16 10:44:29;;;;;;;79.35;50.78;;;8.70;99.90;;;;;;5034259;28;20033;-86
2023/02/16 10:47:00;;;;;;;81.55;49.50;;;8.70;99.90;;;;;;5034663;28;20049;-86
2023/02/16 10:52:13;;;;;;;87.90;50.80;;;8.70;99.90;;;;;;5013566;28;20033;-84
2023/02/16 10:54:45;;;;;;;82.47;52.17;;;8.80;99.90;;;;;;5019102;28;20026;-84
2023/02/16 10:57:40;;;;;;;84.07;51.70;;;9.00;99.90;;;;;;5017251;28;20038;-84
2023/02/16 11:00:10;;;;;;;81.65;50.03;;;8.80;99.90;;;;;;4998515;28;20061;-84
2023/02/16 11:02:38;;;;;;;77.60;49.67;;;8.90;99.90;;;;;;5014686;28;20106;-83
2023/02/16 11:05:38;;;;;;;73.30;47.67;;;8.90;99.90;;;;;;5014098;28;20066;-85
2023/02/16 11:08:06;;;;;;;82.10;49.30;;;8.90;99.90;;;;;;5008598;28;20490;-85
2023/02/16 11:10:51;;;;;;;80.22;49.35;;;9.30;99.90;;;;;;5013721;28;20042;-84
2023/02/16 11:13:36;;;;;;;77.20;49.22;;;8.90;99.90;;;;;;5014317;28;20030;-84
2023/02/16 11:16:18;;;;;;;80.68;49.50;;;8.90;99.90;;;;;;5014221;28;20029;-84
2023/02/16 11:18:48;;;;;;;84.38;52.80;;;9.60;99.90;;;;;;5013059;28;20026;-84
2023/02/16 11:21:15;;;;;;;79.28;49.05;;;9.00;99.90;;;;;;5006969;28;20034;-84
2023/02/16 11:23:43;;;;;;;78.88;49.25;;;9.10;99.90;;;;;;5014509;28;20034;-85
2023/02/16 11:26:09;;;;;;;79.25;48.90;;;9.60;99.90;;;;;;5014089;28;20033;-85
2023/02/16 11:28:46;;;;;;;78.93;51.42;;;9.10;99.90;;;;;;5014113;28;20026;-85
2023/02/16 11:31:31;;;;;;;78.30;47.42;;;9.10;99.90;;;;;;5014073;28;20041;-85
2023/02/16 11:34:06;;;;;;;75.03;47.38;;;9.20;99.90;;;;;;5013886;28;20084;-85
2023/02/16 11:36:42;;;;;;;78.38;48.97;;;9.20;99.90;;;;;;5012332;28;20030;-85
2023/02/16 11:39:19;;;;;;;80.40;47.42;;;9.30;99.90;;;;;;5013540;28;20032;-84
2023/02/16 11:41:51;;;;;;;79.72;48.17;;;9.30;99.90;;;;;;5013710;28;20168;-83
2023/02/16 11:44:35;;;;;;;72.20;47.28;;;9.80;99.90;;;;;;5011801;28;20022;-85
2023/02/16 11:47:04;;;;;;;74.80;49.28;;;9.40;99.90;;;;;;5013548;28;20076;-85
2023/02/16 11:49:37;;;;;;;84.90;53.00;;;9.50;99.90;;;;;;5014482;28;20072;-84
2023/02/16 11:52:22;;;;;;;75.47;48.45;;;9.50;99.90;;;;;;5014296;28;20034;-87
2023/02/16 11:54:54;;;;;;;80.90;48.42;;;9.50;99.90;;;;;;5015541;28;20033;-87
2023/02/16 11:57:35;;;;;;;73.60;48.30;;;9.60;99.90;;;;;;5034013;28;20478;-86
2023/02/16 12:00:14;;;;;;;80.93;50.65;;;9.90;99.90;;;;;;5032989;28;20672;-87
2023/02/16 12:03:12;;;;;;;78.65;48.65;;;9.60;99.90;;;;;;5033144;28;20042;-86
2023/02/16 12:06:06;;;;;;;76.95;49.17;;;9.00;99.90;;;;;;5033275;28;20017;-86
2023/02/16 12:08:56;;;;;;;102.13;51.20;;;9.60;99.90;;;;;;5033192;28;20052;-85
2023/02/16 12:11:48;;;;;;;77.80;50.70;;;9.70;99.90;;;;;;5033514;28;20037;-85
2023/02/16 12:14:43;;;;;;;74.57;48.40;;;9.80;99.90;;;;;;5032483;28;20082;-85
2023/02/16 12:17:26;;;;;;;79.95;48.00;;;9.90;99.90;;;;;;5033272;28;20430;-85
2023/02/16 12:20:20;;;;;;;73.90;47.88;;;10.00;99.90;;;;;;5033163;28;20075;-86
2023/02/16 12:22:48;;;;;;;72.95;46.42;;;10.00;99.90;;;;;;5032435;28;20037;-86
2023/02/16 12:25:55;;;;;;;68.90;45.28;;;10.00;99.90;;;;;;5033317;28;20029;-86
2023/02/16 12:28:24;;;;;;;71.05;45.58;;;10.10;99.90;;;;;;5032543;28;20104;-86
2023/02/16 12:30:59;;;;;;;69.15;41.75;;;10.20;99.90;;;;;;5031859;28;20025;-87
2023/02/16 12:33:49;;;;;;;64.18;42.20;;;10.30;99.90;;;;;;5034517;28;20487;-86
2023/02/16 12:36:53;;;;;;;74.18;43.28;;;10.30;99.90;;;;;;5033090;28;20480;-87
2023/02/16 12:39:44;;;;;;;64.75;41.28;;;10.30;99.90;;;;;;4968675;28;20026;-86
2023/02/16 12:42:32;;;;;;;62.30;41.88;;;10.40;99.90;;;;;;5034075;28;20060;-86
2023/02/16 12:45:02;;;;;;;61.00;40.80;;;10.40;99.90;;;;;;5032582;28;20514;-84
2023/02/16 12:47:36;;;;;;;67.13;39.78;;;10.50;99.90;;;;;;5032623;28;20055;-84
2023/02/16 12:50:23;;;;;;;63.60;40.95;;;10.60;99.90;;;;;;5032126;28;20057;-85
2023/02/16 12:53:17;;;;;;;59.55;40.22;;;10.60;99.90;;;;;;5029070;28;20041;-87
2023/02/16 12:56:03;;;;;;;62.58;38.97;;;10.60;99.90;;;;;;5024325;28;20053;-90
2023/02/16 12:58:39;;;;;;;58.50;36.88;;;10.60;99.90;;;;;;5030644;28;20104;-86
2023/02/16 13:01:20;;;;;;;58.65;37.47;;;11.30;99.90;;;;;;5033483;28;20028;-87
2023/02/16 13:04:13;;;;;;;54.45;36.30;;;11.60;99.90;;;;;;5010674;28;20041;-87
2023/02/16 13:07:22;;;;;;;54.05;36.35;;;10.70;99.90;;;;;;5014009;28;20157;-85
2023/02/16 13:10:38;;;;;;;59.85;34.83;;;10.60;99.90;;;;;;5013335;28;20049;-88
2023/02/16 13:13:20;;;;;;;53.30;35.72;;;10.60;99.90;;;;;;5012827;28;20033;-86
2023/02/16 13:16:06;;;;;;;52.20;34.53;;;10.30;99.90;;;;;;5011352;28;20034;-86
2023/02/16 13:18:37;;;;;;;48.03;34.05;;;10.70;99.90;;;;;;5010962;28;20049;-86
2023/02/16 13:21:11;;;;;;;53.55;37.85;;;11.40;99.90;;;;;;5010710;28;20500;-86
2023/02/16 13:24:01;;;;;;;49.38;32.42;;;10.70;99.90;;;;;;5021463;28;20029;-92
2023/02/16 13:26:56;;;;;;;57.80;34.75;;;11.40;99.90;;;;;;5025215;28;20029;-85
2023/02/16 13:29:51;;;;;;;50.78;33.03;;;10.80;99.90;;;;;;5048605;22;20114;-88
2023/02/16 13:32:39;;;;;;;49.70;32.78;;;10.20;99.90;;;;;;5031301;28;20045;-87
2023/02/16 13:35:35;;;;;;;44.58;31.92;;;10.90;99.90;;;;;;5032881;28;20042;-87
2023/02/16 13:38:23;;;;;;;48.65;32.03;;;10.80;99.90;;;;;;5045914;23;20057;-88
2023/02/16 13:41:27;;;;;;;45.92;31.63;;;10.20;99.90;;;;;;5052293;28;20028;-88
2023/02/16 13:44:11;;;;;;;42.35;29.20;;;10.90;99.90;;;;;;5055659;28;20503;-87
2023/02/16 13:46:42;;;;;;;36.55;26.48;;;11.30;99.90;;;;;;5055983;28;20024;-89
2023/02/16 13:49:26;;;;;;;37.67;26.35;;;11.00;99.90;;;;;;5056619;28;20025;-87
2023/02/16 13:51:58;;;;;;;40.90;25.70;;;11.60;99.90;;;;;;5055959;28;20044;-87
2023/02/16 13:54:33;;;;;;;37.25;24.80;;;11.60;99.90;;;;;;5056292;28;20029;-88